createdAt,value
2023-04-26T00:01:05.757Z,1.02
2023-04-26T00:05:57.770Z,1.00
2023-04-26T00:10:49.446Z,1.38
2023-04-26T00:15:41.014Z,2.70
2023-04-26T00:20:32.718Z,2.20
2023-04-26T00:25:24.385Z,2.25
2023-04-26T00:30:16.243Z,2.83
2023-04-26T00:35:08.518Z,2.58
2023-04-26T00:40:00.144Z,2.80
2023-04-26T00:44:55.353Z,2.25
2023-04-26T00:49:46.986Z,2.60
2023-04-26T00:54:38.931Z,2.85
2023-04-26T00:59:30.590Z,2.45
2023-04-26T01:04:26.431Z,2.58
2023-04-26T01:09:18.867Z,2.38
2023-04-26T01:14:11.045Z,1.88
2023-04-26T01:19:12.402Z,2.38
2023-04-26T01:24:05.467Z,2.45
2023-04-26T01:28:57.228Z,1.88
2023-04-26T01:33:48.773Z,3.13
2023-04-26T01:38:40.486Z,2.05
2023-04-26T01:43:32.352Z,2.25
2023-04-26T01:48:23.945Z,2.42
2023-04-26T01:53:15.501Z,2.58
2023-04-26T01:58:07.193Z,3.60
2023-04-26T02:02:58.993Z,2.40
2023-04-26T02:07:51.682Z,3.25
2023-04-26T02:12:44.688Z,2.35
2023-04-26T02:17:37.887Z,2.38
2023-04-26T02:22:29.893Z,2.22
2023-04-26T02:27:21.498Z,2.53
2023-04-26T02:32:16.416Z,1.95
2023-04-26T02:37:08.966Z,2.58
2023-04-26T02:42:00.728Z,3.25
2023-04-26T02:46:52.370Z,2.53
2023-04-26T02:51:44.015Z,2.47
2023-04-26T02:56:35.683Z,2.60
2023-04-26T03:01:27.513Z,2.88
2023-04-26T03:06:19.162Z,3.70
2023-04-26T03:11:11.610Z,2.70
2023-04-26T03:16:03.219Z,2.95
2023-04-26T03:20:54.813Z,2.65
2023-04-26T03:25:46.822Z,2.97
2023-04-26T03:30:38.586Z,3.70
2023-04-26T03:35:30.376Z,2.53
2023-04-26T03:40:21.956Z,2.08
2023-04-26T03:45:13.551Z,3.60
2023-04-26T03:50:06.392Z,4.18
2023-04-26T03:54:58.011Z,3.10
2023-04-26T03:59:49.548Z,2.88
2023-04-26T04:04:41.266Z,3.58
2023-04-26T04:09:33.112Z,3.80
2023-04-26T04:14:24.752Z,2.90
2023-04-26T04:19:16.858Z,3.10
2023-04-26T04:24:08.544Z,3.38
2023-04-26T04:29:08.667Z,2.30
2023-04-26T04:34:00.862Z,2.67
2023-04-26T04:38:53.799Z,2.88
2023-04-26T04:43:45.706Z,4.25
2023-04-26T04:48:38.733Z,2.40
2023-04-26T04:53:30.695Z,2.17
2023-04-26T04:58:22.583Z,2.90
2023-04-26T05:03:15.155Z,3.20
2023-04-26T05:08:07.959Z,3.60
2023-04-26T05:12:59.548Z,2.85
2023-04-26T05:17:51.440Z,2.97
2023-04-26T05:22:43.433Z,3.03
2023-04-26T05:27:35.062Z,2.60
2023-04-26T05:32:26.892Z,2.58
2023-04-26T05:37:18.534Z,2.25
2023-04-26T05:42:10.078Z,2.78
2023-04-26T05:47:01.839Z,3.17
2023-04-26T05:51:53.547Z,2.88
2023-04-26T05:56:45.135Z,2.65
2023-04-26T06:01:36.738Z,2.55
2023-04-26T06:06:28.737Z,3.30
2023-04-26T06:11:21.361Z,2.65
2023-04-26T06:16:13.078Z,2.53
2023-04-26T06:21:05.297Z,2.42
2023-04-26T06:25:56.880Z,3.03
2023-04-26T06:30:48.651Z,1.92
2023-04-26T06:35:43.337Z,2.25
2023-04-26T06:40:37.122Z,1.90
2023-04-26T06:45:28.857Z,2.60
2023-04-26T06:50:20.716Z,2.05
2023-04-26T06:55:12.413Z,2.35
2023-04-26T07:00:04.655Z,2.30
2023-04-26T07:04:56.532Z,2.58
2023-04-26T07:09:48.298Z,2.55
2023-04-26T07:14:41.394Z,2.35
2023-04-26T07:19:33.164Z,2.85
2023-04-26T07:24:24.825Z,2.03
2023-04-26T07:29:16.523Z,2.13
2023-04-26T07:34:08.087Z,2.17
2023-04-26T07:38:59.681Z,2.30
2023-04-26T07:43:51.441Z,2.33
2023-04-26T07:48:43.228Z,2.28
2023-04-26T07:53:35.197Z,2.13
2023-04-26T07:58:26.851Z,1.20
2023-04-26T08:03:18.792Z,1.52
2023-04-26T08:08:11.104Z,1.50
2023-04-26T08:13:03.545Z,1.67
2023-04-26T08:17:55.310Z,1.42
2023-04-26T08:22:46.983Z,1.75
2023-04-26T08:27:39.849Z,0.93
2023-04-26T08:32:31.465Z,1.30
2023-04-26T08:37:23.076Z,0.70
2023-04-26T08:42:16.254Z,0.63
2023-04-26T08:47:15.904Z,0.80
2023-04-26T08:52:12.533Z,0.93
2023-04-26T08:57:04.293Z,0.75
2023-04-26T09:01:56.336Z,0.68
2023-04-26T09:06:49.916Z,0.77
2023-04-26T09:11:59.767Z,0.98
2023-04-26T09:16:52.185Z,0.85
2023-04-26T09:21:47.208Z,0.90
2023-04-26T09:26:38.930Z,0.90
2023-04-26T09:31:43.673Z,0.85
2023-04-26T09:36:52.750Z,0.95
2023-04-26T09:41:45.422Z,1.15
2023-04-26T09:46:37.038Z,0.70
2023-04-26T09:51:28.923Z,0.68
2023-04-26T09:56:22.041Z,0.60
2023-04-26T10:01:16.676Z,0.77
2023-04-26T10:06:09.028Z,0.85
2023-04-26T10:11:02.325Z,0.98
2023-04-26T10:15:54.502Z,1.00
2023-04-26T10:20:51.436Z,0.73
2023-04-26T10:25:43.095Z,0.70
2023-04-26T10:30:54.786Z,0.88
2023-04-26T10:36:06.994Z,1.00
2023-04-26T10:41:43.654Z,0.90
2023-04-26T10:46:35.843Z,1.00
2023-04-26T10:51:27.777Z,1.60
2023-04-26T10:56:25.520Z,1.35
2023-04-26T11:01:18.773Z,1.17
2023-04-26T11:06:13.901Z,1.10
2023-04-26T11:11:12.134Z,1.25
2023-04-26T11:16:07.355Z,0.93
2023-04-26T11:20:59.607Z,0.85
2023-04-26T11:25:51.647Z,1.00
2023-04-26T11:30:43.979Z,0.90
2023-04-26T11:35:36.032Z,1.77
2023-04-26T11:40:30.334Z,1.40
2023-04-26T11:45:21.914Z,1.08
2023-04-26T11:50:14.158Z,1.23
2023-04-26T11:55:07.237Z,1.33
2023-04-26T12:00:14.842Z,1.63
2023-04-26T12:05:08.008Z,1.25
2023-04-26T12:10:13.994Z,0.80
2023-04-26T12:15:12.637Z,1.30
2023-04-26T12:20:11.965Z,1.35
2023-04-26T12:25:07.434Z,1.38
2023-04-26T12:29:59.192Z,1.27
2023-04-26T12:34:51.322Z,1.75
2023-04-26T12:39:43.925Z,1.15
2023-04-26T12:44:36.620Z,1.92
2023-04-26T12:49:29.701Z,1.67
2023-04-26T12:54:21.251Z,1.70
2023-04-26T12:59:12.857Z,2.00
2023-04-26T13:04:05.978Z,2.30
2023-04-26T13:08:57.915Z,1.67
2023-04-26T13:13:49.796Z,1.55
2023-04-26T13:18:41.794Z,1.38
2023-04-26T13:23:33.464Z,1.15
2023-04-26T13:28:25.062Z,2.38
2023-04-26T13:33:16.712Z,1.30
2023-04-26T13:38:08.384Z,1.27
2023-04-26T13:42:59.983Z,1.63
2023-04-26T13:47:51.582Z,2.28
2023-04-26T13:52:43.216Z,3.88
2023-04-26T13:57:34.824Z,1.90
2023-04-26T14:02:26.547Z,1.30
2023-04-26T14:07:18.340Z,1.88
2023-04-26T14:12:10.208Z,2.28
2023-04-26T14:17:01.824Z,1.67
2023-04-26T14:21:53.450Z,2.20
2023-04-26T14:26:44.996Z,1.90
2023-04-26T14:31:36.725Z,2.47
2023-04-26T14:36:28.466Z,1.70
2023-04-26T14:41:20.362Z,1.90
2023-04-26T14:46:12.955Z,2.45
2023-04-26T14:51:04.734Z,2.25
2023-04-26T14:56:00.269Z,1.85
2023-04-26T15:00:53.090Z,2.15
2023-04-26T15:05:44.892Z,1.73
2023-04-26T15:10:37.062Z,1.60
2023-04-26T15:15:28.669Z,1.42
2023-04-26T15:20:20.801Z,2.00
2023-04-26T15:25:12.884Z,1.65
2023-04-26T15:30:05.751Z,2.05
2023-04-26T15:34:57.319Z,1.52
2023-04-26T15:39:49.132Z,1.25
2023-04-26T15:44:40.735Z,1.88
2023-04-26T15:49:32.401Z,1.20
2023-04-26T15:54:24.338Z,1.27
2023-04-26T15:59:16.732Z,1.42
2023-04-26T16:04:08.980Z,1.20
2023-04-26T16:09:02.207Z,1.20
2023-04-26T16:13:53.886Z,1.05
2023-04-26T16:18:45.780Z,1.73
2023-04-26T16:23:37.817Z,1.27
2023-04-26T16:28:29.448Z,1.60
2023-04-26T16:33:22.981Z,1.83
2023-04-26T16:38:15.015Z,1.70
2023-04-26T16:43:09.215Z,1.90
2023-04-26T16:48:00.816Z,1.23
2023-04-26T16:52:52.970Z,1.52
2023-04-26T16:57:44.672Z,1.80
2023-04-26T17:02:37.256Z,1.48
2023-04-26T17:07:28.923Z,1.52
2023-04-26T17:12:20.655Z,1.40
2023-04-26T17:17:12.705Z,1.27
2023-04-26T17:22:07.760Z,1.10
2023-04-26T17:26:59.874Z,2.20
2023-04-26T17:31:51.963Z,1.77
2023-04-26T17:36:45.705Z,1.52
2023-04-26T17:41:38.388Z,2.10
2023-04-26T17:46:29.988Z,1.73
2023-04-26T17:51:21.744Z,1.95
2023-04-26T17:56:13.409Z,1.35
2023-04-26T18:01:05.517Z,1.38
2023-04-26T18:05:57.568Z,1.77
2023-04-26T18:10:51.558Z,1.63
2023-04-26T18:15:43.203Z,1.75
2023-04-26T18:20:36.760Z,1.20
2023-04-26T18:25:28.774Z,1.48
2023-04-26T18:30:20.751Z,1.30
2023-04-26T18:35:12.787Z,1.13
2023-04-26T18:40:05.595Z,1.55
2023-04-26T18:44:57.283Z,1.60
2023-04-26T18:49:48.818Z,2.10
2023-04-26T18:54:42.119Z,2.53
2023-04-26T18:59:33.798Z,1.63
2023-04-26T19:04:26.552Z,1.60
2023-04-26T19:09:18.722Z,2.90
2023-04-26T19:14:10.649Z,2.05
2023-04-26T19:19:02.270Z,2.53
2023-04-26T19:23:53.796Z,1.73
2023-04-26T19:28:45.608Z,1.60
2023-04-26T19:33:37.239Z,2.05
2023-04-26T19:38:28.898Z,2.28
2023-04-26T19:43:21.134Z,2.38
2023-04-26T19:48:13.328Z,2.25
2023-04-26T19:53:04.984Z,1.80
2023-04-26T19:57:57.052Z,2.53
2023-04-26T20:02:49.845Z,2.28
2023-04-26T20:07:41.773Z,2.00
2023-04-26T20:12:33.613Z,2.85
2023-04-26T20:17:25.815Z,2.00
2023-04-26T20:22:17.704Z,1.58
2023-04-26T20:27:09.350Z,2.55
2023-04-26T20:32:01.098Z,2.28
2023-04-26T20:36:52.680Z,2.05
2023-04-26T20:41:44.328Z,2.08
2023-04-26T20:46:36.193Z,2.30
2023-04-26T20:51:27.817Z,2.20
2023-04-26T20:56:19.412Z,2.97
2023-04-26T21:01:11.651Z,2.60
2023-04-26T21:06:03.455Z,3.85
2023-04-26T21:10:55.100Z,2.70
2023-04-26T21:15:47.337Z,3.30
2023-04-26T21:20:39.011Z,3.22
2023-04-26T21:25:30.699Z,3.08
2023-04-26T21:30:22.467Z,3.22
2023-04-26T21:35:14.075Z,4.10
2023-04-26T21:40:07.124Z,3.45
2023-04-26T21:44:58.704Z,4.22
2023-04-26T21:49:51.413Z,3.58
2023-04-26T21:54:43.030Z,3.72
2023-04-26T21:59:35.458Z,3.40
2023-04-26T22:04:27.141Z,2.97
2023-04-26T22:09:18.760Z,3.75
2023-04-26T22:14:10.501Z,3.30
2023-04-26T22:19:02.284Z,3.83
2023-04-26T22:23:53.921Z,3.42
2023-04-26T22:28:45.598Z,3.05
2023-04-26T22:33:37.198Z,3.42
2023-04-26T22:38:28.730Z,3.53
2023-04-26T22:43:23.111Z,3.17
2023-04-26T22:48:14.873Z,4.43
2023-04-26T22:53:06.795Z,4.20
2023-04-26T22:57:58.398Z,4.43
2023-04-26T23:02:51.002Z,3.90
2023-04-26T23:07:42.647Z,3.47
2023-04-26T23:12:36.086Z,3.22
2023-04-26T23:17:27.987Z,3.28
2023-04-26T23:22:20.486Z,3.60
2023-04-26T23:27:12.225Z,3.95
2023-04-26T23:32:04.007Z,3.95
2023-04-26T23:36:55.899Z,4.03
2023-04-26T23:41:47.567Z,4.00
2023-04-26T23:46:39.154Z,3.75
2023-04-26T23:51:32.335Z,4.70
2023-04-26T23:56:24.075Z,3.67
